Terminal Aerodrome Forecast
Issued by NWS

Home | Current Version | Previous Version | Text Only | Print | Product List | Glossary On
Versions: 1 2 3 4 5 6 7 8 9 10 11 12 13 14 15 16 17
000
FTUS46 KMFR 251139
TAFRBG
TAF
KRBG 251139Z 2512/2612 00000KT P6SM OVC015
     FM251800 36005KT P6SM SCT015 BKN025
     FM252100 36010KT P6SM SKC=

USA.gov is the U.S. government's official web portal to all federal, state and local government web resources and services.